createdAt,value
2022-11-03T00:00:48.850Z,86.58
2022-11-03T00:01:44.960Z,86.41
2022-11-03T00:02:39.843Z,86.29
2022-11-03T00:03:35.111Z,86.37
2022-11-03T00:04:30.912Z,86.37
2022-11-03T00:05:26.134Z,86.40
2022-11-03T00:06:21.214Z,86.65
2022-11-03T00:07:17.635Z,86.79
2022-11-03T00:09:09.008Z,86.89
2022-11-03T00:10:03.793Z,86.99
2022-11-03T00:10:58.903Z,87.24
2022-11-03T00:11:54.680Z,87.39
2022-11-03T00:12:49.818Z,87.62
2022-11-03T00:13:45.640Z,87.71
2022-11-03T00:14:40.719Z,87.64
2022-11-03T00:15:35.812Z,87.51
2022-11-03T00:16:30.992Z,87.36
2022-11-03T00:17:26.408Z,87.32
2022-11-03T00:18:21.494Z,87.33
2022-11-03T00:19:16.805Z,87.21
2022-11-03T00:20:12.609Z,87.31
2022-11-03T00:21:07.680Z,87.22
2022-11-03T00:22:03.069Z,87.20
2022-11-03T00:22:58.719Z,87.24
2022-11-03T00:23:53.958Z,87.33
2022-11-03T00:24:49.111Z,87.37
2022-11-03T00:25:44.162Z,87.31
2022-11-03T00:26:39.224Z,87.07
2022-11-03T00:27:34.300Z,86.72
2022-11-03T00:28:29.436Z,86.27
2022-11-03T00:29:24.630Z,86.16
2022-11-03T00:30:19.605Z,86.13
2022-11-03T00:31:14.660Z,86.00
2022-11-03T00:32:09.766Z,85.93
2022-11-03T00:33:05.302Z,85.98
2022-11-03T00:34:00.262Z,86.36
2022-11-03T00:34:55.058Z,86.50
2022-11-03T00:35:50.153Z,86.61
2022-11-03T00:36:45.371Z,86.57
2022-11-03T00:37:40.358Z,86.69
2022-11-03T00:38:35.431Z,86.59
2022-11-03T00:39:30.691Z,86.83
2022-11-03T00:40:25.632Z,86.94
2022-11-03T00:41:20.702Z,87.04
2022-11-03T00:42:18.864Z,87.03
2022-11-03T00:43:13.942Z,86.86
2022-11-03T00:44:09.143Z,86.66
2022-11-03T00:45:04.091Z,86.65
2022-11-03T00:45:59.188Z,86.57
2022-11-03T00:46:54.231Z,86.58
2022-11-03T00:47:49.397Z,86.64
2022-11-03T00:48:44.480Z,86.91
2022-11-03T00:49:39.488Z,87.15
2022-11-03T00:50:34.665Z,87.48
2022-11-03T00:51:29.746Z,87.59
2022-11-03T00:52:24.719Z,87.62
2022-11-03T00:53:19.764Z,87.66
2022-11-03T00:54:15.033Z,87.85
2022-11-03T00:55:09.953Z,87.80
2022-11-03T00:56:05.035Z,87.93
2022-11-03T00:57:00.107Z,87.99
2022-11-03T00:57:55.149Z,87.96
2022-11-03T00:58:51.889Z,87.96
2022-11-03T00:59:46.976Z,88.16
2022-11-03T01:00:42.055Z,88.28
2022-11-03T01:01:42.210Z,88.25
2022-11-03T01:02:33.191Z,88.22
2022-11-03T01:03:27.310Z,88.28
2022-11-03T01:04:22.246Z,88.33
2022-11-03T01:05:17.243Z,88.36
2022-11-03T01:06:13.562Z,88.61
2022-11-03T01:07:08.759Z,88.67
2022-11-03T01:08:04.276Z,88.64
2022-11-03T01:08:59.284Z,88.71
2022-11-03T01:09:54.483Z,88.83
2022-11-03T01:10:49.546Z,88.74
2022-11-03T01:11:44.797Z,88.69
2022-11-03T01:12:39.930Z,88.71
2022-11-03T01:13:35.861Z,88.46
2022-11-03T01:14:31.225Z,88.12
2022-11-03T01:15:26.759Z,87.96
2022-11-03T01:16:22.804Z,87.82
2022-11-03T01:17:18.027Z,87.76
2022-11-03T01:18:13.840Z,87.67
2022-11-03T01:19:09.488Z,87.58
2022-11-03T01:20:04.324Z,87.43
2022-11-03T01:21:00.016Z,87.46
2022-11-03T01:21:55.177Z,87.50
2022-11-03T01:22:51.033Z,87.38
2022-11-03T01:23:46.222Z,87.28
2022-11-03T01:24:41.679Z,87.27
2022-11-03T01:25:37.220Z,87.40
2022-11-03T01:26:32.467Z,87.59
2022-11-03T01:27:27.562Z,87.64
2022-11-03T01:28:24.001Z,87.70
2022-11-03T01:29:19.268Z,87.48
2022-11-03T01:30:15.057Z,87.43
2022-11-03T01:31:10.310Z,87.58
2022-11-03T01:32:05.447Z,87.76
2022-11-03T01:33:01.258Z,87.85
2022-11-03T01:33:56.402Z,88.04
2022-11-03T01:34:52.212Z,88.05
2022-11-03T01:35:47.339Z,88.22
2022-11-03T01:36:42.828Z,88.47
2022-11-03T01:37:38.255Z,88.62
2022-11-03T01:38:33.441Z,88.73
2022-11-03T01:39:28.554Z,88.98
2022-11-03T01:40:24.953Z,89.00
2022-11-03T01:41:20.273Z,88.66
2022-11-03T01:42:15.966Z,88.46
2022-11-03T01:43:11.114Z,88.46
2022-11-03T01:44:06.296Z,88.69
2022-11-03T01:45:02.148Z,88.84
2022-11-03T01:45:57.444Z,88.91
2022-11-03T01:46:53.602Z,89.17
2022-11-03T01:47:48.592Z,89.46
2022-11-03T01:48:43.707Z,89.65
2022-11-03T01:49:39.561Z,89.76
2022-11-03T01:50:34.851Z,89.82
2022-11-03T01:51:30.243Z,89.95
2022-11-03T01:52:26.383Z,90.02
2022-11-03T01:53:21.539Z,90.15
2022-11-03T01:54:17.402Z,90.37
2022-11-03T01:55:12.629Z,90.54
2022-11-03T01:56:07.912Z,90.61
2022-11-03T01:57:03.662Z,90.61
2022-11-03T01:57:58.797Z,90.59
2022-11-03T01:58:54.656Z,90.46
2022-11-03T01:59:49.769Z,90.34
2022-11-03T02:00:45.373Z,90.02
2022-11-03T02:01:41.055Z,89.82
2022-11-03T02:02:36.205Z,89.71
2022-11-03T02:03:31.387Z,89.70
2022-11-03T02:04:27.874Z,89.84
2022-11-03T02:05:23.183Z,89.84
2022-11-03T02:06:19.128Z,89.91
2022-11-03T02:07:14.243Z,89.90
2022-11-03T02:09:05.174Z,90.02
2022-11-03T02:10:00.355Z,90.05
2022-11-03T02:10:56.184Z,90.26
2022-11-03T02:11:51.322Z,90.34
2022-11-03T02:12:46.654Z,90.33
2022-11-03T02:13:41.760Z,90.32
2022-11-03T02:14:36.911Z,90.59
2022-11-03T02:15:33.535Z,90.68
2022-11-03T02:16:28.827Z,90.70
2022-11-03T02:17:24.714Z,90.75
2022-11-03T02:18:19.917Z,90.75
2022-11-03T02:19:15.201Z,90.50
2022-11-03T02:20:10.819Z,90.39
2022-11-03T02:21:05.954Z,90.18
2022-11-03T02:22:01.096Z,90.14
2022-11-03T02:22:57.672Z,90.14
2022-11-03T02:23:52.838Z,90.15
2022-11-03T02:24:52.883Z,90.28
2022-11-03T02:25:44.830Z,90.46
2022-11-03T02:26:39.043Z,90.65
2022-11-03T02:27:35.407Z,90.64
2022-11-03T02:28:30.686Z,90.58
2022-11-03T02:29:26.367Z,90.57
2022-11-03T02:30:21.613Z,90.71
2022-11-03T02:31:16.746Z,90.73
2022-11-03T02:32:11.995Z,90.83
2022-11-03T02:33:07.853Z,91.04
2022-11-03T02:34:02.534Z,91.09
2022-11-03T02:34:57.655Z,91.13
2022-11-03T02:35:52.977Z,91.28
2022-11-03T02:36:48.730Z,91.38
2022-11-03T02:37:44.569Z,91.58
2022-11-03T02:38:39.759Z,91.68
2022-11-03T02:39:34.917Z,91.85
2022-11-03T02:40:34.238Z,92.04
2022-11-03T02:41:29.636Z,92.25
2022-11-03T02:42:24.712Z,92.36
2022-11-03T02:43:19.797Z,92.51
2022-11-03T02:44:14.943Z,92.53
2022-11-03T02:45:13.237Z,92.62
2022-11-03T02:46:05.856Z,92.65
2022-11-03T02:46:59.938Z,92.62
2022-11-03T02:47:54.948Z,92.63
2022-11-03T02:48:49.976Z,92.67
2022-11-03T02:49:45.090Z,92.85
2022-11-03T02:50:40.096Z,92.98
2022-11-03T02:51:35.136Z,93.01
2022-11-03T02:52:30.163Z,93.08
2022-11-03T02:53:25.444Z,93.11
2022-11-03T02:54:20.344Z,93.07
2022-11-03T02:55:15.328Z,93.08
2022-11-03T02:56:10.505Z,93.16
2022-11-03T02:57:05.377Z,93.25
2022-11-03T02:58:00.639Z,93.14
2022-11-03T02:58:55.821Z,93.06
2022-11-03T02:59:51.086Z,92.96
2022-11-03T03:00:46.246Z,92.91
2022-11-03T03:01:41.512Z,92.77
2022-11-03T03:02:36.537Z,92.74
2022-11-03T03:03:31.531Z,92.53
2022-11-03T03:04:26.560Z,92.29
2022-11-03T03:05:25.518Z,92.12
2022-11-03T03:06:20.807Z,92.16
2022-11-03T03:07:15.935Z,92.14
2022-11-03T03:08:11.190Z,91.95
2022-11-03T03:09:06.470Z,91.88
2022-11-03T03:10:02.421Z,91.88
2022-11-03T03:10:57.601Z,91.80
2022-11-03T03:11:52.889Z,91.73
2022-11-03T03:12:48.634Z,91.74
2022-11-03T03:13:43.905Z,91.73
2022-11-03T03:14:39.755Z,91.78
2022-11-03T03:15:34.908Z,91.90
2022-11-03T03:16:30.174Z,92.07
2022-11-03T03:17:25.897Z,92.14
2022-11-03T03:18:21.203Z,92.28
2022-11-03T03:19:16.361Z,92.46
2022-11-03T03:20:12.910Z,92.63
2022-11-03T03:21:08.090Z,92.67
2022-11-03T03:22:03.909Z,92.60
2022-11-03T03:22:59.152Z,92.54
2022-11-03T03:23:54.322Z,92.50
2022-11-03T03:24:50.150Z,92.36
2022-11-03T03:25:45.358Z,92.28
2022-11-03T03:26:41.197Z,92.19
2022-11-03T03:27:36.317Z,92.14
2022-11-03T03:28:31.628Z,92.11
2022-11-03T03:29:27.342Z,92.04
2022-11-03T03:30:22.550Z,92.11
2022-11-03T03:31:17.679Z,92.19
2022-11-03T03:32:14.099Z,92.41
2022-11-03T03:33:09.674Z,92.54
2022-11-03T03:34:16.648Z,92.64
2022-11-03T03:35:01.296Z,92.67
2022-11-03T03:35:55.510Z,92.64
2022-11-03T03:36:52.036Z,92.58
2022-11-03T03:37:47.337Z,92.50
2022-11-03T03:38:43.302Z,92.43
2022-11-03T03:39:38.450Z,92.41
2022-11-03T03:40:33.882Z,92.52
2022-11-03T03:41:29.738Z,92.48
2022-11-03T03:42:25.014Z,92.51
2022-11-03T03:43:20.400Z,92.51
2022-11-03T03:44:16.695Z,92.63
2022-11-03T03:45:11.716Z,92.72
2022-11-03T03:46:07.569Z,92.92
2022-11-03T03:47:02.825Z,92.93
2022-11-03T03:47:58.106Z,92.93
2022-11-03T03:48:53.844Z,92.87
2022-11-03T03:49:49.080Z,92.82
2022-11-03T03:50:44.780Z,92.85
2022-11-03T03:51:39.908Z,92.72
2022-11-03T03:52:35.319Z,92.65
2022-11-03T03:53:31.056Z,92.72
2022-11-03T03:54:26.513Z,92.60
2022-11-03T03:55:21.588Z,92.50
2022-11-03T03:56:17.964Z,92.40
2022-11-03T03:57:13.261Z,92.24
2022-11-03T03:58:09.351Z,92.28
2022-11-03T03:59:04.514Z,92.36
2022-11-03T03:59:59.549Z,92.25
2022-11-03T04:00:55.489Z,92.16
2022-11-03T04:01:50.764Z,92.03
2022-11-03T04:02:46.516Z,91.88
2022-11-03T04:03:41.523Z,91.87
2022-11-03T04:04:36.692Z,91.83
2022-11-03T04:05:32.666Z,91.69
2022-11-03T04:06:27.844Z,91.51
2022-11-03T04:07:23.126Z,91.42
2022-11-03T04:08:19.376Z,91.34
2022-11-03T04:09:14.655Z,91.22
2022-11-03T04:10:09.786Z,91.04
2022-11-03T04:11:04.950Z,90.76
2022-11-03T04:12:00.893Z,90.60
2022-11-03T04:12:56.015Z,90.50
2022-11-03T04:13:51.334Z,90.45
2022-11-03T04:14:47.031Z,90.40
2022-11-03T04:15:42.201Z,90.39
2022-11-03T04:16:37.606Z,90.27
2022-11-03T04:17:33.726Z,90.17
2022-11-03T04:18:29.006Z,90.02
2022-11-03T04:19:24.829Z,89.96
2022-11-03T04:20:19.968Z,90.07
2022-11-03T04:21:15.308Z,90.20
2022-11-03T04:22:10.925Z,90.31
2022-11-03T04:23:06.084Z,90.30
2022-11-03T04:24:02.065Z,90.30
2022-11-03T04:24:57.078Z,90.37
2022-11-03T04:25:52.479Z,90.51
2022-11-03T04:26:47.793Z,90.53
2022-11-03T04:27:42.792Z,90.51
2022-11-03T04:28:37.802Z,90.50
2022-11-03T04:29:32.836Z,90.36
2022-11-03T04:30:27.975Z,90.37
2022-11-03T04:31:23.060Z,90.36
2022-11-03T04:32:18.214Z,90.24
2022-11-03T04:33:13.131Z,90.08
2022-11-03T04:34:08.137Z,89.94
2022-11-03T04:35:03.163Z,89.94
2022-11-03T04:35:58.198Z,90.02
2022-11-03T04:36:53.268Z,90.23
2022-11-03T04:37:48.400Z,90.30
2022-11-03T04:38:43.489Z,90.42
2022-11-03T04:39:38.515Z,90.32
2022-11-03T04:40:33.575Z,90.18
2022-11-03T04:41:28.811Z,90.01
2022-11-03T04:42:23.954Z,89.99
2022-11-03T04:43:20.524Z,90.09
2022-11-03T04:44:15.518Z,90.29
2022-11-03T04:45:10.559Z,90.33
2022-11-03T04:46:05.595Z,90.34
2022-11-03T04:47:00.665Z,90.19
2022-11-03T04:47:55.684Z,90.24
2022-11-03T04:48:51.662Z,90.22
2022-11-03T04:49:46.928Z,90.14
2022-11-03T04:50:46.513Z,90.04
2022-11-03T04:51:37.266Z,90.11
2022-11-03T04:52:32.432Z,90.15
2022-11-03T04:53:27.579Z,90.33
2022-11-03T04:54:22.859Z,90.49
2022-11-03T04:55:18.081Z,90.81
2022-11-03T04:56:13.222Z,91.07
2022-11-03T04:57:08.486Z,91.38
2022-11-03T04:58:03.661Z,91.71
2022-11-03T04:58:59.644Z,91.93
2022-11-03T04:59:54.300Z,92.12
2022-11-03T05:00:49.320Z,92.30
2022-11-03T05:01:44.784Z,92.28
2022-11-03T05:02:39.880Z,92.25
2022-11-03T05:03:35.162Z,92.21
2022-11-03T05:04:30.436Z,92.15
2022-11-03T05:05:25.624Z,92.08
2022-11-03T05:06:20.772Z,92.04
2022-11-03T05:07:16.185Z,92.09
2022-11-03T05:08:11.274Z,92.15
2022-11-03T05:09:06.405Z,92.20
2022-11-03T05:10:01.653Z,92.24
2022-11-03T05:10:56.795Z,92.26
2022-11-03T05:11:51.945Z,92.30
2022-11-03T05:12:47.111Z,92.52
2022-11-03T05:13:42.380Z,92.63
2022-11-03T05:14:37.833Z,92.71
2022-11-03T05:15:32.863Z,92.75
2022-11-03T05:16:28.425Z,92.75
2022-11-03T05:17:23.336Z,92.87
2022-11-03T05:18:18.509Z,92.91
2022-11-03T05:19:13.910Z,92.92
2022-11-03T05:20:08.944Z,92.90
2022-11-03T05:21:04.260Z,93.00
2022-11-03T05:21:59.405Z,93.20
2022-11-03T05:22:54.659Z,93.31
2022-11-03T05:23:49.946Z,93.27
2022-11-03T05:24:45.144Z,93.21
2022-11-03T05:25:40.350Z,93.04
2022-11-03T05:26:35.640Z,92.93
2022-11-03T05:27:30.674Z,92.83
2022-11-03T05:28:25.836Z,92.80
2022-11-03T05:29:21.030Z,92.98
2022-11-03T05:30:16.180Z,93.04
2022-11-03T05:31:11.651Z,93.23
2022-11-03T05:32:06.684Z,93.32
2022-11-03T05:33:01.810Z,93.33
2022-11-03T05:33:56.835Z,93.34
2022-11-03T05:34:51.868Z,93.25
2022-11-03T05:35:46.909Z,93.15
2022-11-03T05:36:45.097Z,92.91
2022-11-03T05:37:40.137Z,92.90
2022-11-03T05:38:35.282Z,92.85
2022-11-03T05:39:30.340Z,92.86
2022-11-03T05:40:25.415Z,92.85
2022-11-03T05:41:20.458Z,92.91
2022-11-03T05:42:15.479Z,93.06
2022-11-03T05:43:12.269Z,93.14
2022-11-03T05:44:05.511Z,93.21
2022-11-03T05:45:00.534Z,93.37
2022-11-03T05:45:55.620Z,93.43
2022-11-03T05:46:50.543Z,93.48
2022-11-03T05:47:45.575Z,93.54
2022-11-03T05:48:40.681Z,93.49
2022-11-03T05:49:35.729Z,93.55
2022-11-03T05:50:30.841Z,93.61
2022-11-03T05:51:27.254Z,93.51
2022-11-03T05:52:22.269Z,93.60
2022-11-03T05:53:17.278Z,93.57
2022-11-03T05:54:16.974Z,93.49
2022-11-03T05:55:08.390Z,93.37
2022-11-03T05:56:02.367Z,93.23
2022-11-03T05:56:57.468Z,93.21
2022-11-03T05:57:52.473Z,93.34
2022-11-03T05:58:47.556Z,93.33
2022-11-03T05:59:42.645Z,93.19
2022-11-03T06:00:37.901Z,93.12
2022-11-03T06:01:32.793Z,93.10
2022-11-03T06:02:28.398Z,93.14
2022-11-03T06:03:23.612Z,93.12
2022-11-03T06:04:18.848Z,93.16
2022-11-03T06:05:14.632Z,93.24
2022-11-03T06:06:10.175Z,93.26
2022-11-03T06:07:05.675Z,93.28
2022-11-03T06:08:00.898Z,93.30
2022-11-03T06:08:56.272Z,93.30
2022-11-03T06:09:52.110Z,93.25
2022-11-03T06:10:47.493Z,93.26
2022-11-03T06:11:42.764Z,93.23
2022-11-03T06:12:39.132Z,93.16
2022-11-03T06:13:34.395Z,93.15
2022-11-03T06:14:30.122Z,93.24
2022-11-03T06:15:25.471Z,93.36
2022-11-03T06:16:20.731Z,93.32
2022-11-03T06:17:16.604Z,93.35
2022-11-03T06:18:11.965Z,93.40
2022-11-03T06:19:07.827Z,93.52
2022-11-03T06:20:03.044Z,93.62
2022-11-03T06:20:58.386Z,93.68
2022-11-03T06:21:54.146Z,93.66
2022-11-03T06:22:49.481Z,93.58
2022-11-03T06:23:44.935Z,93.48
2022-11-03T06:24:41.149Z,93.49
2022-11-03T06:25:36.481Z,93.58
2022-11-03T06:26:32.267Z,93.54
2022-11-03T06:27:27.605Z,93.43
2022-11-03T06:28:23.252Z,93.25
2022-11-03T06:29:18.900Z,93.03
2022-11-03T06:30:14.233Z,92.88
2022-11-03T06:31:10.040Z,92.82
2022-11-03T06:32:05.351Z,92.83
2022-11-03T06:33:00.841Z,92.86
2022-11-03T06:33:56.567Z,92.92
2022-11-03T06:34:51.851Z,92.85
2022-11-03T06:35:47.385Z,92.85
2022-11-03T06:36:43.559Z,92.79
2022-11-03T06:37:38.953Z,92.62
2022-11-03T06:38:34.719Z,92.48
2022-11-03T06:39:30.025Z,92.39
2022-11-03T06:40:25.377Z,92.32
2022-11-03T06:41:21.119Z,92.35
2022-11-03T06:42:16.448Z,92.42
2022-11-03T06:43:12.188Z,92.62
2022-11-03T06:44:07.740Z,92.64
2022-11-03T06:45:03.064Z,92.59
2022-11-03T06:45:58.723Z,92.56
2022-11-03T06:46:54.137Z,92.56
2022-11-03T06:47:49.517Z,92.45
2022-11-03T06:48:44.956Z,92.34
2022-11-03T06:49:40.933Z,92.25
2022-11-03T06:50:38.840Z,92.11
2022-11-03T06:51:32.874Z,91.99
2022-11-03T06:52:27.471Z,91.99
2022-11-03T06:53:22.860Z,92.24
2022-11-03T06:54:18.444Z,92.41
2022-11-03T06:55:16.891Z,92.59
2022-11-03T06:56:10.012Z,92.64
2022-11-03T06:57:05.663Z,92.71
2022-11-03T06:58:01.066Z,92.76
2022-11-03T06:58:56.610Z,92.89
2022-11-03T07:00:06.736Z,93.15
2022-11-03T07:00:51.323Z,93.25
2022-11-03T07:01:43.609Z,93.38
2022-11-03T07:02:38.957Z,93.49
2022-11-03T07:03:34.289Z,93.51
2022-11-03T07:04:29.994Z,93.62
2022-11-03T07:05:25.428Z,93.68
2022-11-03T07:06:20.818Z,93.74
2022-11-03T07:07:16.222Z,93.71
2022-11-03T07:08:11.650Z,93.71
2022-11-03T07:09:07.057Z,93.66
2022-11-03T07:10:02.171Z,93.63
2022-11-03T07:10:57.284Z,93.62
2022-11-03T07:11:52.405Z,93.58
2022-11-03T07:12:47.519Z,93.67
2022-11-03T07:13:42.687Z,93.91
2022-11-03T07:14:37.748Z,94.04
2022-11-03T07:15:32.716Z,94.17
2022-11-03T07:16:27.755Z,94.32
2022-11-03T07:17:23.401Z,94.53
2022-11-03T07:18:18.953Z,94.60
2022-11-03T07:19:14.296Z,94.71
2022-11-03T07:20:09.733Z,94.82
2022-11-03T07:21:04.794Z,95.08
2022-11-03T07:21:59.790Z,95.13
2022-11-03T07:22:54.804Z,95.06
2022-11-03T07:23:49.885Z,95.02
2022-11-03T07:24:44.945Z,95.02
2022-11-03T07:25:39.980Z,94.97
2022-11-03T07:26:35.064Z,95.09
2022-11-03T07:27:30.098Z,95.08
2022-11-03T07:28:25.183Z,94.89
2022-11-03T07:29:20.202Z,94.80
2022-11-03T07:30:15.501Z,94.71
2022-11-03T07:31:16.009Z,94.64
2022-11-03T07:32:07.420Z,94.46
2022-11-03T07:33:02.256Z,94.26
2022-11-03T07:33:57.404Z,94.12
2022-11-03T07:34:52.833Z,94.03
2022-11-03T07:36:13.902Z,94.06
2022-11-03T07:36:52.885Z,94.27
2022-11-03T07:37:44.015Z,94.58
2022-11-03T07:38:38.396Z,94.56
2022-11-03T07:39:33.833Z,94.46
2022-11-03T07:40:29.457Z,94.39
2022-11-03T07:41:28.168Z,94.24
2022-11-03T07:42:21.192Z,94.13
2022-11-03T07:43:15.741Z,94.17
2022-11-03T07:44:11.145Z,94.27
2022-11-03T07:45:06.957Z,94.45
2022-11-03T07:46:02.432Z,94.49
2022-11-03T07:46:57.858Z,94.46
2022-11-03T07:47:53.290Z,94.47
2022-11-03T07:48:48.775Z,94.46
2022-11-03T07:49:44.359Z,94.50
2022-11-03T07:50:39.353Z,94.58
2022-11-03T07:51:34.398Z,94.67
2022-11-03T07:52:29.609Z,94.80
2022-11-03T07:53:26.145Z,95.00
2022-11-03T07:54:19.709Z,95.12
2022-11-03T07:55:14.740Z,95.15
2022-11-03T07:56:09.824Z,95.14
2022-11-03T07:57:04.853Z,95.11
2022-11-03T07:57:59.889Z,95.14
2022-11-03T07:58:54.979Z,95.12
2022-11-03T07:59:51.090Z,95.18
2022-11-03T08:00:46.127Z,95.25
2022-11-03T08:01:41.271Z,95.30
2022-11-03T08:02:36.295Z,95.27
2022-11-03T08:03:31.984Z,95.28
2022-11-03T08:04:27.450Z,95.24
2022-11-03T08:05:22.889Z,95.26
2022-11-03T08:06:19.962Z,95.20
2022-11-03T08:07:14.201Z,95.22
2022-11-03T08:08:09.846Z,95.22
2022-11-03T08:09:04.928Z,95.30
2022-11-03T08:10:00.379Z,95.45
2022-11-03T08:10:55.821Z,95.55
2022-11-03T08:11:51.391Z,95.55
2022-11-03T08:12:47.949Z,95.55
2022-11-03T08:13:43.360Z,95.53
2022-11-03T08:14:38.793Z,95.53
2022-11-03T08:15:34.103Z,95.59
2022-11-03T08:16:29.679Z,95.65
2022-11-03T08:17:25.279Z,95.61
2022-11-03T08:18:20.331Z,95.63
2022-11-03T08:19:15.355Z,95.57
2022-11-03T08:20:10.436Z,95.54
2022-11-03T08:21:05.475Z,95.53
2022-11-03T08:22:00.499Z,95.55
2022-11-03T08:23:51.637Z,95.62
2022-11-03T08:24:45.817Z,95.53
2022-11-03T08:25:40.866Z,95.54
2022-11-03T08:26:35.987Z,95.54
2022-11-03T08:27:30.884Z,95.47
2022-11-03T08:28:25.934Z,95.39
2022-11-03T08:29:20.965Z,95.35
2022-11-03T08:30:15.993Z,95.21
2022-11-03T08:31:12.836Z,95.08
2022-11-03T08:32:10.131Z,94.98
2022-11-03T08:33:05.924Z,94.96
2022-11-03T08:34:01.062Z,94.91
2022-11-03T08:34:56.513Z,94.82
2022-11-03T08:35:51.973Z,94.76
2022-11-03T08:36:47.300Z,94.65
2022-11-03T08:37:42.722Z,94.54
2022-11-03T08:38:38.169Z,94.47
2022-11-03T08:39:33.771Z,94.61
2022-11-03T08:40:29.469Z,94.72
2022-11-03T08:41:24.651Z,94.79
2022-11-03T08:42:20.247Z,94.83
2022-11-03T08:43:15.681Z,94.87
2022-11-03T08:44:11.104Z,94.89
2022-11-03T08:45:06.548Z,94.93
2022-11-03T08:46:09.596Z,94.99
2022-11-03T08:46:57.687Z,94.99
2022-11-03T08:47:51.827Z,95.01
2022-11-03T08:48:46.877Z,95.06
2022-11-03T08:49:41.971Z,95.13
2022-11-03T08:50:37.052Z,95.12
2022-11-03T08:51:32.147Z,95.09
2022-11-03T08:52:27.214Z,95.12
2022-11-03T08:53:22.301Z,94.95
2022-11-03T08:54:17.335Z,94.87
2022-11-03T08:55:12.392Z,94.75
2022-11-03T08:56:10.482Z,94.69
2022-11-03T08:57:03.494Z,94.69
2022-11-03T08:57:57.575Z,94.73
2022-11-03T08:58:53.284Z,94.86
2022-11-03T08:59:48.884Z,94.89
2022-11-03T09:00:44.504Z,94.94
2022-11-03T09:01:39.850Z,94.83
2022-11-03T09:02:35.420Z,94.79
2022-11-03T09:03:30.727Z,94.85
2022-11-03T09:04:26.349Z,94.93
2022-11-03T09:05:21.667Z,94.99
2022-11-03T09:06:17.154Z,95.01
2022-11-03T09:07:12.782Z,95.05
2022-11-03T09:10:55.295Z,95.20
2022-11-03T09:11:49.368Z,95.23
2022-11-03T09:12:44.360Z,95.26
2022-11-03T09:13:39.542Z,95.20
2022-11-03T09:14:34.458Z,95.11
2022-11-03T09:15:29.648Z,95.03
2022-11-03T09:16:24.550Z,95.09
2022-11-03T09:17:19.617Z,95.04
2022-11-03T09:18:17.604Z,95.10
2022-11-03T09:19:12.367Z,95.16
2022-11-03T09:20:07.418Z,95.18
2022-11-03T09:21:02.451Z,95.22
2022-11-03T09:21:57.523Z,95.26
2022-11-03T09:22:52.534Z,95.15
2022-11-03T09:23:47.880Z,95.04
2022-11-03T09:24:43.354Z,95.06
2022-11-03T09:25:38.929Z,95.06
2022-11-03T09:26:34.348Z,94.98
2022-11-03T09:27:29.776Z,94.97
2022-11-03T09:28:25.237Z,95.01
2022-11-03T09:29:20.703Z,95.08
2022-11-03T09:30:16.156Z,95.15
2022-11-03T09:31:11.623Z,95.21
2022-11-03T09:32:07.040Z,95.28
2022-11-03T09:33:02.576Z,95.20
2022-11-03T09:33:58.390Z,95.11
2022-11-03T09:34:53.835Z,95.01
2022-11-03T09:35:49.227Z,94.95
2022-11-03T09:36:47.003Z,94.78
2022-11-03T09:37:41.153Z,94.61
2022-11-03T09:38:35.488Z,94.55
2022-11-03T09:39:30.932Z,94.45
2022-11-03T09:40:26.357Z,94.39
2022-11-03T09:41:27.937Z,94.39
2022-11-03T09:42:18.343Z,94.43
2022-11-03T09:43:12.822Z,94.46
2022-11-03T09:44:08.162Z,94.61
2022-11-03T09:45:02.951Z,94.56
2022-11-03T09:45:58.118Z,94.49
2022-11-03T09:46:57.828Z,94.56
2022-11-03T09:47:49.167Z,94.64
2022-11-03T09:48:43.270Z,94.61
2022-11-03T09:49:38.279Z,94.57
2022-11-03T09:50:33.299Z,94.48
2022-11-03T09:51:28.320Z,94.38
2022-11-03T09:52:23.374Z,94.28
2022-11-03T09:53:18.401Z,94.25
2022-11-03T09:54:13.411Z,94.11
2022-11-03T09:55:08.449Z,94.00
2022-11-03T09:56:03.462Z,93.95
2022-11-03T09:56:59.190Z,94.00
2022-11-03T09:57:54.225Z,93.92
2022-11-03T09:58:53.969Z,93.86
2022-11-03T09:59:45.291Z,93.79
2022-11-03T10:00:40.307Z,93.76
2022-11-03T10:01:35.879Z,93.58
2022-11-03T10:02:31.218Z,93.54
2022-11-03T10:03:26.529Z,93.51
2022-11-03T10:04:22.264Z,93.37
2022-11-03T10:05:17.674Z,93.23
2022-11-03T10:06:15.421Z,92.97
2022-11-03T10:07:08.792Z,92.90
2022-11-03T10:08:04.082Z,92.79
2022-11-03T10:08:59.500Z,92.68
2022-11-03T10:09:54.971Z,92.58
2022-11-03T10:10:50.578Z,92.43
2022-11-03T10:11:46.015Z,92.28
2022-11-03T10:12:41.522Z,92.20
2022-11-03T10:13:37.091Z,91.94
2022-11-03T10:14:32.504Z,91.70
2022-11-03T10:15:28.052Z,91.40
2022-11-03T10:16:23.455Z,91.40
2022-11-03T10:17:18.890Z,91.40
2022-11-03T10:18:14.330Z,91.32
2022-11-03T10:19:09.898Z,91.23
2022-11-03T10:20:05.528Z,91.17
2022-11-03T10:21:00.755Z,91.27
2022-11-03T10:21:58.500Z,91.39
2022-11-03T10:22:53.932Z,91.33
2022-11-03T10:23:49.471Z,91.38
2022-11-03T10:24:44.903Z,91.43
2022-11-03T10:25:40.335Z,91.84
2022-11-03T10:26:35.452Z,92.04
2022-11-03T10:27:30.349Z,92.19
2022-11-03T10:28:25.360Z,91.95
2022-11-03T10:30:15.477Z,91.53
2022-11-03T10:31:12.167Z,91.54
2022-11-03T10:32:05.570Z,91.67
2022-11-03T10:33:01.489Z,91.96
2022-11-03T10:33:56.584Z,92.14
2022-11-03T10:34:51.816Z,92.31
2022-11-03T10:35:46.843Z,92.52
2022-11-03T10:36:45.523Z,92.59
2022-11-03T10:37:37.910Z,92.82
2022-11-03T10:38:31.980Z,93.05
2022-11-03T10:39:27.082Z,93.18
2022-11-03T10:40:46.790Z,93.43
2022-11-03T10:41:18.674Z,93.54
2022-11-03T10:42:13.034Z,93.46
2022-11-03T10:43:08.698Z,93.39
2022-11-03T10:44:04.042Z,93.33
2022-11-03T10:44:59.360Z,93.27
2022-11-03T10:45:54.790Z,93.16
2022-11-03T10:46:51.443Z,92.97
2022-11-03T10:47:45.628Z,92.72
2022-11-03T10:48:41.035Z,92.64
2022-11-03T10:49:39.393Z,92.32
2022-11-03T10:50:32.941Z,91.75
2022-11-03T10:51:27.430Z,91.58
2022-11-03T10:52:23.038Z,91.36
2022-11-03T10:53:18.378Z,91.13
2022-11-03T10:54:13.802Z,91.17
2022-11-03T10:55:09.438Z,91.16
2022-11-03T10:56:08.657Z,91.28
2022-11-03T10:57:04.492Z,91.39
2022-11-03T10:57:59.751Z,91.45
2022-11-03T10:58:55.187Z,91.12
2022-11-03T10:59:50.783Z,90.89
2022-11-03T11:00:46.260Z,90.60
2022-11-03T11:01:41.818Z,90.60
2022-11-03T11:02:37.286Z,90.49
2022-11-03T11:03:32.601Z,90.65
2022-11-03T11:04:28.100Z,90.60
2022-11-03T11:05:23.539Z,90.98
2022-11-03T11:06:18.519Z,91.18
2022-11-03T11:07:13.530Z,91.24
2022-11-03T11:08:08.630Z,91.36
2022-11-03T11:09:03.703Z,91.39
2022-11-03T11:09:58.707Z,91.39
2022-11-03T11:10:53.823Z,91.32
2022-11-03T11:11:48.777Z,91.14
2022-11-03T11:12:44.080Z,90.88
2022-11-03T11:13:39.134Z,90.47
2022-11-03T11:14:34.126Z,90.27
2022-11-03T11:15:29.319Z,90.22
2022-11-03T11:16:24.322Z,90.44
2022-11-03T11:17:19.336Z,90.50
2022-11-03T11:18:14.518Z,90.63
2022-11-03T11:19:12.020Z,90.94
2022-11-03T11:20:07.712Z,91.27
2022-11-03T11:21:02.899Z,91.39
2022-11-03T11:21:58.310Z,91.58
2022-11-03T11:22:53.908Z,91.69
2022-11-03T11:23:49.330Z,91.77
2022-11-03T11:24:44.873Z,91.85
2022-11-03T11:25:40.206Z,91.96
2022-11-03T11:26:35.744Z,91.99
2022-11-03T11:27:31.092Z,91.84
2022-11-03T11:28:26.523Z,91.81
2022-11-03T11:29:21.944Z,91.81
2022-11-03T11:30:17.391Z,91.89
2022-11-03T11:31:12.799Z,91.78
2022-11-03T11:32:08.219Z,91.78
2022-11-03T11:33:03.242Z,91.83
2022-11-03T11:33:58.268Z,91.94
2022-11-03T11:34:53.450Z,92.01
2022-11-03T11:35:48.470Z,92.09
2022-11-03T11:36:43.669Z,92.12
2022-11-03T11:37:38.589Z,92.23
2022-11-03T11:38:33.628Z,92.21
2022-11-03T11:39:28.799Z,92.37
2022-11-03T11:40:23.877Z,92.45
2022-11-03T11:41:18.894Z,92.47
2022-11-03T11:42:14.064Z,92.47
2022-11-03T11:43:09.470Z,92.47
2022-11-03T11:44:03.996Z,92.45
2022-11-03T11:44:59.585Z,92.48
2022-11-03T11:45:55.016Z,92.40
2022-11-03T11:46:50.453Z,92.34
2022-11-03T11:47:46.102Z,92.33
2022-11-03T11:48:41.521Z,92.23
2022-11-03T11:49:36.958Z,91.84
2022-11-03T11:50:32.407Z,91.75
2022-11-03T11:51:27.512Z,91.61
2022-11-03T11:52:22.540Z,91.60
2022-11-03T11:53:17.771Z,91.78
2022-11-03T11:54:19.769Z,91.76
2022-11-03T11:55:08.848Z,91.89
2022-11-03T11:56:02.914Z,91.68
2022-11-03T11:56:57.883Z,91.28
2022-11-03T11:57:55.210Z,91.03
2022-11-03T11:58:50.542Z,90.80
2022-11-03T11:59:45.956Z,90.64